Time;durP1;ratioP1;P1;durP2;ratioP2;P2;SDS_P1;SDS_P2;PMS_P1;PMS_P2;Temp;Humidity;BMP_temperature;BMP_pressure;BME280_temperature;BME280_humidity;BME280_pressure;Samples;Min_cycle;Max_cycle;Signal;HPM_P1;HPM_P2
2022/06/17 00:01:46;;;;;;;4.03;2.85;;;;;;;23.66;40.08;102447.97;4843158;29;20021;-84
2022/06/17 00:04:12;;;;;;;3.67;2.72;;;;;;;23.66;40.35;102442.72;4843135;29;20041;-84
2022/06/17 00:07:11;;;;;;;3.75;2.50;;;;;;;23.67;39.93;102447.06;4827894;29;20055;-85
2022/06/17 00:09:37;;;;;;;4.13;2.85;;;;;;;23.66;39.98;102450.59;4839265;29;20064;-84
2022/06/17 00:12:04;;;;;;;6.60;2.80;;;;;;;23.66;40.07;102442.72;4842714;29;20465;-81
2022/06/17 00:14:33;;;;;;;3.95;2.72;;;;;;;23.65;40.01;102440.94;4843090;29;20025;-83
2022/06/17 00:17:02;;;;;;;5.55;3.00;;;;;;;23.65;40.12;102443.56;4843901;29;20036;-79
2022/06/17 00:19:28;;;;;;;4.43;2.67;;;;;;;23.64;40.12;102434.81;4827436;29;20097;-83
2022/06/17 00:21:56;;;;;;;4.05;2.72;;;;;;;23.65;40.13;102438.31;4843108;29;20034;-84
2022/06/17 00:24:24;;;;;;;6.28;3.10;;;;;;;23.66;40.48;102442.72;4856561;29;20026;-84
2022/06/17 00:26:51;;;;;;;3.97;2.65;;;;;;;23.64;40.51;102437.44;4844394;29;20067;-79
2022/06/17 00:29:25;;;;;;;5.38;3.03;;;;;;;23.64;40.23;102441.84;4843586;29;20492;-77
2022/06/17 00:31:51;;;;;;;3.40;2.80;;;;;;;23.64;40.42;102437.44;4841685;29;20544;-77
2022/06/17 00:34:19;;;;;;;3.75;2.83;;;;;;;23.62;40.48;102434.84;4842003;29;20026;-78
2022/06/17 00:36:45;;;;;;;4.50;2.50;;;;;;;23.61;40.31;102435.72;4827214;29;20030;-78
2022/06/17 00:39:18;;;;;;;4.22;2.65;;;;;;;23.61;40.09;102438.34;4829464;29;20062;-78
2022/06/17 00:41:45;;;;;;;;;;;;;;;23.61;40.23;102438.34;4862717;29;20041;-83
2022/06/17 00:44:28;;;;;;;3.95;2.70;;;;;;;23.61;40.49;102443.63;4845121;29;20000;-78
2022/06/17 00:47:01;;;;;;;3.58;2.63;;;;;;;23.60;40.23;102441.88;4844732;29;20036;-78
2022/06/17 00:49:42;;;;;;;3.75;2.72;;;;;;;23.61;40.53;102442.75;4844932;29;20117;-78
2022/06/17 00:52:20;;;;;;;4.20;2.80;;;;;;;23.60;40.39;102435.75;4861578;29;20037;-78
2022/06/17 00:54:53;;;;;;;3.42;2.33;;;;;;;23.60;40.22;102435.75;4844811;29;20025;-78
2022/06/17 00:57:21;;;;;;;3.70;2.70;;;;;;;23.58;40.43;102432.25;4844504;29;20793;-78
2022/06/17 01:00:07;;;;;;;5.03;2.55;;;;;;;23.60;40.42;102433.09;4844547;29;20030;-78
2022/06/17 01:02:37;;;;;;;3.60;2.63;;;;;;;23.58;40.61;102427.91;4834904;29;20044;-78
2022/06/17 01:05:03;;;;;;;3.65;2.55;;;;;;;23.59;40.82;102428.75;4845650;29;20572;-78
2022/06/17 01:07:36;;;;;;;3.70;2.38;;;;;;;23.58;40.75;102430.53;4853340;29;20101;-78
2022/06/17 01:10:09;;;;;;;4.10;2.60;;;;;;;23.58;40.55;102427.00;4844655;29;20025;-78
2022/06/17 01:12:39;;;;;;;5.18;2.72;;;;;;;23.58;40.25;102427.00;4844431;29;20381;-79
2022/06/17 01:15:07;;;;;;;5.57;2.72;;;;;;;23.57;40.54;102427.91;4861222;29;20034;-78
2022/06/17 01:17:37;;;;;;;4.07;2.60;;;;;;;23.56;40.65;102419.16;4861175;29;20033;-78
2022/06/17 01:20:04;;;;;;;3.03;2.67;;;;;;;23.56;40.65;102416.53;4844573;29;20064;-78
2022/06/17 01:22:37;;;;;;;3.67;2.63;;;;;;;23.56;40.47;102424.41;4844587;29;20021;-78
2022/06/17 01:25:10;;;;;;;4.30;2.80;;;;;;;23.57;40.56;102422.63;4844608;29;20034;-78
2022/06/17 01:27:39;;;;;;;4.10;2.53;;;;;;;23.55;40.84;102420.03;4860963;29;20033;-78
2022/06/17 01:30:07;;;;;;;3.40;2.65;;;;;;;23.54;40.69;102420.91;4861005;29;20060;-78
2022/06/17 01:32:38;;;;;;;5.00;3.10;;;;;;;23.53;40.58;102415.66;4844137;29;20035;-78
2022/06/17 01:35:05;;;;;;;4.88;2.88;;;;;;;23.53;40.54;102413.91;4860873;29;20116;-78
2022/06/17 01:37:31;;;;;;;4.55;2.90;;;;;;;23.52;40.49;102411.31;4829053;29;20062;-78
2022/06/17 01:39:57;;;;;;;3.72;2.78;;;;;;;23.50;40.77;102411.31;4829584;29;20066;-78
2022/06/17 01:42:24;;;;;;;4.20;2.90;;;;;;;23.49;40.56;102398.19;4846801;29;20077;-78
2022/06/17 01:44:53;;;;;;;4.72;2.78;;;;;;;23.47;40.42;102400.81;4848354;29;20049;-78
2022/06/17 01:47:24;;;;;;;4.10;2.60;;;;;;;23.48;40.74;102399.94;4838298;29;20046;-77
2022/06/17 01:49:53;;;;;;;3.67;2.60;;;;;;;23.49;40.65;102401.69;4851921;29;20124;-78
2022/06/17 01:52:27;;;;;;;4.07;2.55;;;;;;;23.48;40.79;102397.31;4848253;29;20034;-78
2022/06/17 01:54:59;;;;;;;5.05;2.72;;;;;;;23.51;40.67;102401.66;4848462;29;20029;-78
2022/06/17 01:57:30;;;;;;;3.90;2.58;;;;;;;23.50;40.48;102399.94;4864816;29;20025;-78
2022/06/17 02:00:00;;;;;;;3.97;2.90;;;;;;;23.50;40.55;102407.81;4864565;29;20033;-78
2022/06/17 02:02:28;;;;;;;4.93;3.00;;;;;;;23.49;40.46;102409.56;4847827;29;20014;-78
2022/06/17 02:04:59;;;;;;;3.67;2.72;;;;;;;23.48;40.65;102418.34;4847706;29;20026;-78
2022/06/17 02:07:46;;;;;;;4.38;3.00;;;;;;;23.48;40.49;102414.84;4847682;29;20021;-78
2022/06/17 02:10:11;;;;;;;3.08;2.70;;;;;;;23.48;40.99;102420.09;4864423;29;20484;-78
2022/06/17 02:12:38;;;;;;;4.32;2.90;;;;;;;23.47;40.81;102421.84;4831996;29;20040;-78
2022/06/17 02:15:04;;;;;;;3.63;2.60;;;;;;;23.46;40.53;102422.75;4864193;29;20065;-78
2022/06/17 02:17:34;;;;;;;4.00;2.75;;;;;;;23.46;40.47;102419.25;4847633;29;20061;-78
2022/06/17 02:20:01;;;;;;;4.57;2.95;;;;;;;23.45;40.68;102418.34;4847808;29;20104;-78
2022/06/17 02:22:30;;;;;;;3.72;2.88;;;;;;;23.44;40.38;102416.63;4847446;29;20029;-78
2022/06/17 02:25:00;;;;;;;4.93;2.85;;;;;;;23.44;40.47;102411.38;4864004;29;20029;-78
2022/06/17 02:27:27;;;;;;;4.03;2.78;;;;;;;23.44;40.69;102418.38;4847190;29;20473;-78
2022/06/17 02:29:54;;;;;;;5.82;2.70;;;;;;;23.44;40.45;102416.63;4855766;29;20412;-78
2022/06/17 02:32:20;;;;;;;4.18;2.78;;;;;;;23.44;40.69;102419.25;4832146;29;20038;-78
2022/06/17 02:34:58;;;;;;;3.72;2.60;;;;;;;23.44;40.66;102424.50;4847376;29;20037;-78
2022/06/17 02:37:26;;;;;;;4.72;3.00;;;;;;;23.44;40.74;102413.13;4863915;29;20029;-79
2022/06/17 02:39:54;;;;;;;5.68;3.20;;;;;;;23.43;40.40;102412.28;4846767;29;20488;-78
2022/06/17 02:42:30;;;;;;;4.10;2.90;;;;;;;23.41;40.89;102411.41;4832358;29;20029;-78
2022/06/17 02:45:12;;;;;;;3.72;2.88;;;;;;;23.41;40.83;102406.16;4863723;29;20053;-78
2022/06/17 02:47:38;;;;;;;3.38;2.70;;;;;;;23.41;40.81;102403.53;4847095;29;20036;-78
2022/06/17 02:50:05;;;;;;;5.25;2.67;;;;;;;23.39;40.55;102406.16;4831652;29;20034;-78
2022/06/17 02:52:36;;;;;;;3.72;2.78;;;;;;;23.38;40.91;102403.53;4846525;29;20038;-78
2022/06/17 02:55:07;;;;;;;4.30;2.58;;;;;;;23.38;40.69;102407.03;4846674;29;20036;-78
2022/06/17 02:57:33;;;;;;;3.92;3.00;;;;;;;23.38;40.45;102416.69;4846642;29;20030;-78
2022/06/17 03:00:15;;;;;;;4.57;2.42;;;;;;;23.38;40.82;102412.28;4831412;29;20038;-78
2022/06/17 03:02:48;;;;;;;6.07;3.13;;;;;;;23.38;40.99;102399.16;4863288;29;20381;-78
2022/06/17 03:05:23;;;;;;;3.78;2.70;;;;;;;23.39;40.86;102398.28;4863353;29;20029;-78
2022/06/17 03:07:49;;;;;;;3.90;2.65;;;;;;;23.39;40.44;102397.41;4846605;29;20029;-78
2022/06/17 03:10:26;;;;;;;3.00;2.70;;;;;;;23.39;40.63;102400.91;4849839;29;20414;-77
2022/06/17 03:12:56;;;;;;;3.53;2.65;;;;;;;23.37;40.78;102392.16;4867447;29;20410;-78
2022/06/17 03:15:23;;;;;;;3.55;2.67;;;;;;;23.37;40.84;102391.31;4863290;29;20033;-78
2022/06/17 03:17:48;;;;;;;4.97;2.92;;;;;;;23.35;40.80;102393.94;4831349;29;20427;-78
2022/06/17 03:20:31;;;;;;;4.25;2.70;;;;;;;23.36;40.67;102393.03;4831067;29;20063;-78
2022/06/17 03:23:03;;;;;;;5.47;3.00;;;;;;;23.36;40.80;102386.91;4846377;29;20022;-78
2022/06/17 03:25:36;;;;;;;3.75;2.88;;;;;;;23.36;40.49;102397.44;4846323;29;20029;-78
2022/06/17 03:28:12;;;;;;;4.47;2.88;;;;;;;23.36;40.67;102395.66;4846293;29;20025;-78
2022/06/17 03:30:42;;;;;;;4.60;2.97;;;;;;;23.33;40.65;102395.72;4863138;29;20036;-78
2022/06/17 03:33:17;;;;;;;4.22;2.80;;;;;;;23.34;40.44;102391.31;4845899;29;20040;-78
2022/06/17 03:35:45;;;;;;;3.22;2.65;;;;;;;23.34;40.60;102393.94;4862761;29;20059;-78
2022/06/17 03:38:30;;;;;;;6.47;3.22;;;;;;;23.33;40.93;102386.97;4845993;29;20472;-78
2022/06/17 03:41:02;;;;;;;3.67;2.80;;;;;;;23.34;40.81;102386.06;4864336;29;20049;-78
2022/06/17 03:43:38;;;;;;;3.80;2.70;;;;;;;23.35;40.92;102382.56;4862875;29;20026;-78
2022/06/17 03:46:06;;;;;;;5.53;2.70;;;;;;;23.34;40.70;102384.34;4846245;29;20026;-78
2022/06/17 03:48:52;;;;;;;3.78;2.67;;;;;;;23.34;40.71;102393.94;4862486;29;20033;-78
2022/06/17 03:51:21;;;;;;;6.00;2.70;;;;;;;23.36;40.43;102400.91;4862682;29;20094;-78
2022/06/17 03:53:48;;;;;;;5.63;2.55;;;;;;;23.38;40.75;102412.28;4856685;29;20025;-78
2022/06/17 03:56:27;;;;;;;4.15;2.70;;;;;;;23.39;40.70;102410.56;4846691;29;20515;-78
2022/06/17 03:58:55;;;;;;;4.63;2.95;;;;;;;23.39;40.68;102413.19;4846196;29;20059;-78
2022/06/17 04:01:44;;;;;;;5.70;2.50;;;;;;;23.38;40.56;102414.06;4845856;29;20429;-78
2022/06/17 04:04:20;;;;;;;3.35;2.40;;;;;;;23.38;40.58;102407.03;4862404;29;20460;-78
2022/06/17 04:06:49;;;;;;;3.38;2.60;;;;;;;23.37;40.49;102407.06;4845995;29;20025;-78
2022/06/17 04:09:19;;;;;;;3.33;2.25;;;;;;;23.37;40.47;102409.69;4862201;29;20035;-78
2022/06/17 04:11:50;;;;;;;5.22;2.50;;;;;;;23.36;40.45;102400.06;4845636;29;20039;-78
2022/06/17 04:14:24;;;;;;;4.47;2.72;;;;;;;23.34;40.71;102399.19;4845479;29;20033;-78
2022/06/17 04:17:10;;;;;;;3.80;2.47;;;;;;;23.35;40.80;102396.56;4845606;29;20052;-78
2022/06/17 04:19:35;;;;;;;3.33;2.28;;;;;;;23.34;40.46;102392.22;4844836;29;20045;-80
2022/06/17 04:22:25;;;;;;;5.18;2.67;;;;;;;23.35;40.86;102393.06;4830757;29;20384;-79
2022/06/17 04:24:57;;;;;;;2.83;2.45;;;;;;;23.37;40.69;102384.28;4861943;29;20043;-78
2022/06/17 04:27:24;;;;;;;2.30;2.10;;;;;;;23.38;40.57;102385.16;4845640;29;20453;-78
2022/06/17 04:29:53;;;;;;;3.63;2.42;;;;;;;23.34;40.70;102379.06;4863714;29;20033;-78
2022/06/17 04:32:29;;;;;;;6.32;2.90;;;;;;;23.37;40.36;102379.03;4847225;29;20124;-78
2022/06/17 04:34:54;;;;;;;5.43;2.63;;;;;;;23.34;40.73;102375.56;4855889;29;20438;-78
2022/06/17 04:37:22;;;;;;;4.22;2.92;;;;;;;23.34;40.36;102372.94;4862244;29;20057;-78
2022/06/17 04:39:59;;;;;;;4.85;2.50;;;;;;;23.35;40.48;102379.94;4845055;29;20117;-78
2022/06/17 04:42:47;;;;;;;3.58;2.70;;;;;;;23.36;40.31;102376.41;4845067;29;20544;-78
2022/06/17 04:45:20;;;;;;;5.07;2.50;;;;;;;23.37;40.61;102380.81;4844691;29;20045;-79
2022/06/17 04:47:46;;;;;;;7.03;2.42;;;;;;;23.37;40.42;102372.91;4845312;29;20032;-78
2022/06/17 04:50:15;;;;;;;4.20;2.55;;;;;;;23.37;40.47;102376.41;4829862;29;20064;-78
2022/06/17 04:52:44;;;;;;;4.57;2.60;;;;;;;23.38;40.14;102378.13;4845183;29;20029;-78
2022/06/17 04:55:19;;;;;;;5.10;2.90;;;;;;;23.35;40.53;102372.94;4861606;29;20389;-78
2022/06/17 04:57:46;;;;;;;4.90;2.58;;;;;;;23.35;40.56;102370.28;4845171;29;20037;-78
2022/06/17 05:00:21;;;;;;;5.82;2.97;;;;;;;23.36;40.24;102368.53;4844994;29;20033;-80
2022/06/17 05:02:47;;;;;;;4.80;2.60;;;;;;;23.38;40.17;102367.63;4845021;29;20017;-78
2022/06/17 05:05:21;;;;;;;4.40;2.53;;;;;;;23.39;40.12;102369.38;4845008;29;20040;-78
2022/06/17 05:07:52;;;;;;;3.72;2.30;;;;;;;23.40;40.38;102371.09;4861409;29;20033;-78
2022/06/17 05:10:33;;;;;;;5.15;2.85;;;;;;;23.41;40.57;102356.25;4861593;29;20021;-78
2022/06/17 05:13:12;;;;;;;5.75;2.20;;;;;;;23.42;40.82;102352.72;4861289;29;20420;-78
2022/06/17 05:15:37;;;;;;;5.30;2.30;;;;;;;23.44;40.13;102352.72;4851085;29;20013;-76
2022/06/17 05:18:03;;;;;;;5.18;2.30;;;;;;;23.44;40.39;102350.94;4840638;29;20045;-78
2022/06/17 05:20:29;;;;;;;5.22;2.50;;;;;;;23.47;40.31;102353.53;4867504;29;20034;-80
2022/06/17 05:22:59;;;;;;;4.20;2.70;;;;;;;23.46;40.14;102350.94;4836262;29;20117;-81
2022/06/17 05:25:28;;;;;;;4.25;2.60;;;;;;;23.49;40.14;102345.63;4851823;29;20089;-78
2022/06/17 05:27:53;;;;;;;5.25;2.47;;;;;;;23.51;39.79;102349.97;4867241;29;20068;-78
2022/06/17 05:30:19;;;;;;;5.20;2.70;;;;;;;23.62;40.51;102347.25;4851038;29;20406;-78
2022/06/17 05:32:50;;;;;;;8.10;3.22;;;;;;;23.57;40.04;102351.69;4850486;29;20435;-77
2022/06/17 05:35:16;;;;;;;8.50;2.70;;;;;;;23.56;40.39;102349.94;4850685;29;20489;-78
2022/06/17 05:37:41;;;;;;;8.98;2.72;;;;;;;23.51;40.16;102339.47;4835432;29;20082;-77
2022/06/17 05:40:08;;;;;;;8.20;3.17;;;;;;;23.50;40.07;102340.38;4850442;29;20101;-77
2022/06/17 05:42:35;;;;;;;4.60;3.03;;;;;;;23.47;40.02;102332.50;4850655;29;20030;-78
2022/06/17 05:45:01;;;;;;;8.95;3.20;;;;;;;23.52;40.35;102330.72;4850484;29;20053;-77
2022/06/17 05:47:26;;;;;;;4.15;2.58;;;;;;;23.52;40.62;102330.72;4850788;29;20116;-78
2022/06/17 05:49:52;;;;;;;5.57;2.85;;;;;;;23.49;40.99;102327.25;4867676;29;20033;-79
2022/06/17 05:52:18;;;;;;;6.70;3.35;;;;;;;23.44;41.16;102327.31;4821728;29;20038;-78
2022/06/17 05:54:44;;;;;;;9.50;4.13;;;;;;;23.39;41.33;102324.72;4851492;29;20037;-82
2022/06/17 05:57:09;;;;;;;9.82;4.20;;;;;;;23.34;40.80;102317.75;4857325;29;20041;-77
2022/06/17 05:59:35;;;;;;;10.05;4.00;;;;;;;23.31;40.88;102317.81;4853916;29;20025;-79
2022/06/17 06:02:00;;;;;;;14.70;4.20;;;;;;;23.32;40.62;102332.66;4852540;29;20061;-78
2022/06/17 06:04:26;;;;;;;10.43;3.90;;;;;;;23.31;40.65;102325.69;4837435;29;20066;-77
2022/06/17 06:06:52;;;;;;;10.20;4.32;;;;;;;23.32;40.71;102335.28;4837885;29;20033;-78
2022/06/17 06:09:17;;;;;;;7.07;4.10;;;;;;;23.33;40.70;102334.44;4837323;29;20491;-78
2022/06/17 06:11:43;;;;;;;10.27;4.22;;;;;;;23.33;40.64;102329.19;4851989;29;20544;-78
2022/06/17 06:14:08;;;;;;;13.20;4.15;;;;;;;23.33;40.82;102332.66;4851601;29;20037;-78
2022/06/17 06:16:34;;;;;;;9.15;4.10;;;;;;;23.32;40.66;102332.66;4835403;29;20049;-78
2022/06/17 06:19:00;;;;;;;15.13;4.03;;;;;;;23.32;41.09;102337.94;4850456;29;20034;-78
2022/06/17 06:21:26;;;;;;;7.30;3.78;;;;;;;23.33;40.78;102331.81;4850733;29;20062;-78
2022/06/17 06:23:54;;;;;;;7.55;3.78;;;;;;;23.32;40.75;102336.19;4835269;29;20056;-78
2022/06/17 06:26:21;;;;;;;8.10;3.65;;;;;;;23.35;40.85;102335.28;4835666;29;20059;-78
2022/06/17 06:28:47;;;;;;;10.20;4.07;;;;;;;23.37;40.86;102329.13;4847145;29;20550;-79
2022/06/17 06:31:18;;;;;;;10.63;3.70;;;;;;;23.38;40.96;102322.09;4817006;29;20045;-79
2022/06/17 06:33:43;;;;;;;12.02;3.78;;;;;;;23.45;40.61;102317.66;4847681;29;20034;-78
2022/06/17 06:36:09;;;;;;;11.32;4.32;;;;;;;23.47;40.64;102327.25;4832349;29;20487;-78
2022/06/17 06:38:34;;;;;;;8.45;4.03;;;;;;;23.48;40.88;102325.53;4854851;29;20022;-78
2022/06/17 06:41:02;;;;;;;8.60;3.53;;;;;;;23.50;40.96;102337.75;4850251;29;20445;-78
2022/06/17 06:43:34;;;;;;;6.65;4.10;;;;;;;23.53;41.03;102339.47;4863906;29;20070;-79
2022/06/17 06:46:09;;;;;;;10.35;3.90;;;;;;;23.54;41.13;102336.84;4847462;29;20053;-78
2022/06/17 06:48:34;;;;;;;7.10;3.90;;;;;;;23.53;41.21;102335.06;4863514;29;20116;-78
2022/06/17 06:51:00;;;;;;;7.82;3.20;;;;;;;23.53;41.59;102327.19;4831890;29;20121;-78
2022/06/17 06:53:26;;;;;;;12.70;4.07;;;;;;;23.54;41.41;102334.22;4831722;29;20040;-78
2022/06/17 06:55:51;;;;;;;7.00;3.85;;;;;;;23.54;41.29;102328.94;4816644;29;20041;-78
2022/06/17 06:58:19;;;;;;;7.18;4.07;;;;;;;23.56;41.24;102339.41;4816679;29;20432;-78
2022/06/17 07:00:47;;;;;;;9.07;3.90;;;;;;;23.57;41.03;102341.19;4846901;29;20392;-79
2022/06/17 07:03:14;;;;;;;7.43;3.60;;;;;;;23.70;40.83;102341.91;4863873;29;20018;-78
2022/06/17 07:05:43;;;;;;;11.45;3.58;;;;;;;23.74;40.31;102348.88;4846950;29;20026;-79
2022/06/17 07:08:11;;;;;;;7.75;3.90;;;;;;;23.71;40.37;102344.50;4846411;29;20025;-78
2022/06/17 07:10:38;;;;;;;7.82;3.78;;;;;;;23.72;40.89;102332.25;4846804;29;20090;-78
2022/06/17 07:13:05;;;;;;;6.35;3.33;;;;;;;23.83;40.34;102324.28;4831233;29;20038;-78
2022/06/17 07:15:31;;;;;;;6.78;3.58;;;;;;;23.82;40.28;102331.28;4864958;29;20052;-78
2022/06/17 07:18:17;;;;;;;6.47;3.17;;;;;;;23.90;40.17;102341.72;4863924;29;20469;-78
2022/06/17 07:20:45;;;;;;;7.53;3.45;;;;;;;24.01;39.91;102345.94;4867751;29;20037;-78
2022/06/17 07:23:19;;;;;;;7.43;3.67;;;;;;;24.01;40.00;102340.66;4863508;29;20056;-78
2022/06/17 07:25:45;;;;;;;7.45;3.55;;;;;;;24.04;39.85;102339.78;4846485;29;20117;-77
2022/06/17 07:28:21;;;;;;;8.38;3.83;;;;;;;24.10;39.85;102329.16;4863264;29;20064;-78
2022/06/17 07:30:49;;;;;;;6.00;3.25;;;;;;;24.17;39.60;102324.69;4846557;29;20061;-78
2022/06/17 07:33:16;;;;;;;8.23;3.63;;;;;;;24.21;39.42;102342.16;4846457;29;20037;-78
2022/06/17 07:35:42;;;;;;;6.68;3.25;;;;;;;24.25;39.72;102337.75;4816043;29;20070;-78
2022/06/17 07:41:03;;;;;;;4.95;2.85;;;;;;;24.31;39.55;102337.66;4862663;29;20410;-77
2022/06/17 07:43:28;;;;;;;6.28;3.38;;;;;;;24.33;39.40;102344.63;4846498;29;20464;-77
2022/06/17 07:45:54;;;;;;;5.82;3.20;;;;;;;24.38;39.42;102334.03;4830881;29;20047;-77
2022/06/17 07:48:19;;;;;;;4.97;2.90;;;;;;;24.39;39.32;102326.13;4845992;29;20476;-77
2022/06/17 07:50:45;;;;;;;8.57;3.35;;;;;;;24.40;39.33;102335.75;4815542;29;20060;-78
2022/06/17 07:53:13;;;;;;;5.82;3.13;;;;;;;24.41;39.51;102334.88;4845830;29;20378;-78
2022/06/17 07:55:40;;;;;;;5.40;3.30;;;;;;;24.44;38.97;102336.59;4845838;29;20112;-77
2022/06/17 07:58:06;;;;;;;5.32;3.00;;;;;;;24.49;39.00;102344.44;4846002;29;20113;-77
2022/06/17 08:00:36;;;;;;;6.00;2.90;;;;;;;24.48;38.98;102351.47;4845959;29;20448;-77
2022/06/17 08:03:02;;;;;;;6.35;2.90;;;;;;;24.50;38.88;102340.91;4854524;29;20084;-77
2022/06/17 08:05:28;;;;;;;5.28;2.70;;;;;;;24.53;38.95;102346.16;4846425;29;20033;-77
2022/06/17 08:07:54;;;;;;;6.55;2.97;;;;;;;24.53;39.09;102351.41;4862680;29;20037;-78
2022/06/17 08:10:24;;;;;;;6.80;2.60;;;;;;;24.57;39.15;102347.84;4845614;29;20135;-78
2022/06/17 08:12:50;;;;;;;5.40;2.33;;;;;;;24.57;38.74;102351.34;4845548;29;20030;-76
2022/06/17 08:15:16;;;;;;;5.60;2.55;;;;;;;24.60;38.30;102351.28;4830358;29;20040;-78
2022/06/17 08:17:42;;;;;;;10.43;3.03;;;;;;;24.62;38.28;102349.50;4845635;29;20033;-78
2022/06/17 08:20:21;;;;;;;7.20;2.65;;;;;;;24.63;38.56;102345.13;4862141;29;20117;-77
2022/06/17 08:22:47;;;;;;;8.80;3.15;;;;;;;24.63;38.60;102342.50;4862077;29;20035;-77
2022/06/17 08:25:13;;;;;;;8.07;3.33;;;;;;;24.63;38.43;102338.09;4862051;29;20116;-78
2022/06/17 08:27:44;;;;;;;13.23;4.10;;;;;;;24.62;38.78;102344.22;4845647;29;20476;-77
2022/06/17 08:30:10;;;;;;;8.80;3.78;;;;;;;24.63;38.56;102339.84;4845356;29;20120;-77
2022/06/17 08:32:45;;;;;;;7.50;3.42;;;;;;;24.64;38.37;102342.44;4862060;29;20108;-77
2022/06/17 08:35:12;;;;;;;9.52;3.20;;;;;;;24.65;38.66;102345.97;4831801;29;20176;-77
2022/06/17 08:37:37;;;;;;;8.10;3.20;;;;;;;24.65;38.73;102330.19;4845678;29;20037;-77
2022/06/17 08:40:22;;;;;;;7.68;2.88;;;;;;;24.62;38.72;102336.34;4845239;29;20129;-77
2022/06/17 08:43:10;;;;;;;7.72;3.30;;;;;;;24.57;39.21;102339.94;4847692;29;20036;-77
2022/06/17 08:45:47;;;;;;;5.93;3.15;;;;;;;24.52;39.20;102340.03;4865313;29;20036;-78
2022/06/17 08:48:44;;;;;;;5.53;2.90;;;;;;;24.58;39.25;102332.00;4862001;29;20036;-77
2022/06/17 08:51:32;;;;;;;6.90;3.22;;;;;;;24.62;39.08;102340.72;4846883;29;20049;-77
2022/06/17 08:54:20;;;;;;;7.35;3.47;;;;;;;24.63;39.20;102347.75;4844767;29;20485;-77
2022/06/17 08:57:19;;;;;;;4.35;2.72;;;;;;;24.62;39.22;102344.22;4845469;29;20121;-77
2022/06/17 08:59:57;;;;;;;9.23;2.78;;;;;;;24.61;39.32;102347.78;4845405;29;20414;-77
2022/06/17 09:02:31;;;;;;;5.25;2.72;;;;;;;24.62;39.01;102356.53;4861661;29;20429;-77
2022/06/17 09:05:12;;;;;;;4.35;2.50;;;;;;;24.61;39.18;102349.53;4845012;29;20441;-78
2022/06/17 09:07:53;;;;;;;4.63;2.45;;;;;;;24.60;39.10;102343.38;4844838;29;20555;-77
2022/06/17 09:10:19;;;;;;;5.40;2.92;;;;;;;24.59;39.43;102352.19;4844781;29;20060;-78
2022/06/17 09:12:53;;;;;;;3.92;2.50;;;;;;;24.58;39.03;102350.44;4844731;29;20476;-78
2022/06/17 09:15:28;;;;;;;5.25;2.40;;;;;;;24.58;39.40;102350.44;4845712;29;20530;-87
2022/06/17 09:17:58;;;;;;;4.22;2.38;;;;;;;24.58;39.45;102355.69;4862526;29;20042;-86
2022/06/17 09:20:30;;;;;;;4.07;2.30;;;;;;;24.56;39.10;102344.34;4846137;29;20487;-86
2022/06/17 09:23:03;;;;;;;3.05;2.00;;;;;;;24.56;39.50;102351.34;4846448;29;20484;-86
2022/06/17 09:25:40;;;;;;;3.65;2.22;;;;;;;24.55;39.33;102342.59;4862713;29;20033;-86
2022/06/17 09:28:12;;;;;;;3.92;2.50;;;;;;;24.55;39.45;102336.47;4847024;29;20512;-86
2022/06/17 09:30:44;;;;;;;6.15;2.70;;;;;;;24.52;39.42;102341.75;4845838;29;20034;-86
2022/06/17 09:33:32;;;;;;;4.72;2.10;;;;;;;24.53;39.34;102338.25;4862389;29;20034;-86
2022/06/17 09:36:06;;;;;;;3.45;2.20;;;;;;;24.52;39.44;102344.38;4845773;29;20029;-87
2022/06/17 09:38:44;;;;;;;3.65;2.20;;;;;;;24.52;39.35;102339.13;4845872;29;20038;-87
2022/06/17 09:41:33;;;;;;;3.08;2.10;;;;;;;24.55;39.61;102336.47;4862467;29;20077;-87
2022/06/17 09:44:07;;;;;;;2.88;2.05;;;;;;;24.54;39.17;102330.34;4862278;29;20021;-86
2022/06/17 09:46:38;;;;;;;4.18;2.22;;;;;;;24.53;39.12;102328.59;4862173;29;20029;-87
2022/06/17 09:49:18;;;;;;;3.15;1.80;;;;;;;24.51;39.42;102330.38;4845364;29;20048;-87
2022/06/17 09:52:06;;;;;;;4.18;2.08;;;;;;;24.51;39.05;102332.13;4862073;29;20053;-86
2022/06/17 09:54:38;;;;;;;3.78;2.33;;;;;;;24.50;39.06;102323.38;4845521;29;20477;-90
2022/06/17 09:57:23;;;;;;;4.03;1.95;;;;;;;24.48;39.27;102316.38;4846466;29;20064;-90
2022/06/17 09:59:54;;;;;;;3.83;2.10;;;;;;;24.47;39.43;102318.13;4862435;29;20069;-86
2022/06/17 10:02:35;;;;;;;3.40;2.08;;;;;;;24.46;39.35;102300.59;4845460;29;20021;-88
2022/06/17 10:05:15;;;;;;;10.95;2.15;;;;;;;24.43;38.95;102298.00;4855148;29;20029;-86
2022/06/17 10:07:50;;;;;;;6.55;2.25;;;;;;;24.41;39.10;102299.78;4872304;29;20401;-87
2022/06/17 10:10:27;;;;;;;3.92;2.10;;;;;;;24.40;38.86;102295.44;4849105;29;20041;-88
2022/06/17 10:13:21;;;;;;;4.82;2.20;;;;;;;24.38;39.19;102289.31;4848570;29;20029;-82
2022/06/17 10:19:12;;;;;;;3.97;2.08;;;;;;;24.37;39.35;102288.44;4850632;29;20044;-81
2022/06/17 10:22:27;;;;;;;4.28;2.00;;;;;;;24.36;39.17;102297.22;4848001;29;20033;-80
2022/06/17 10:25:34;;;;;;;3.20;1.98;;;;;;;24.36;39.63;102285.84;4843430;29;20041;-81
2022/06/17 10:28:25;;;;;;;5.15;2.25;;;;;;;24.36;39.33;102281.44;4842426;29;20039;-80
2022/06/17 10:31:00;;;;;;;2.97;1.92;;;;;;;24.36;39.45;102277.94;4847800;29;20030;-82
2022/06/17 10:33:30;;;;;;;3.92;2.00;;;;;;;24.35;39.46;102284.13;4847991;29;20029;-82
2022/06/17 10:35:55;;;;;;;3.58;2.20;;;;;;;24.36;39.31;102283.19;4848384;29;20037;-88
2022/06/17 10:38:26;;;;;;;4.40;2.00;;;;;;;24.35;39.14;102281.47;4817888;29;20369;-89
2022/06/17 10:40:51;;;;;;;3.17;1.95;;;;;;;24.34;39.16;102275.31;4848051;29;20130;-88
2022/06/17 10:43:39;;;;;;;3.63;1.90;;;;;;;24.34;39.30;102275.31;4833080;29;20129;-87
2022/06/17 10:46:05;;;;;;;2.90;2.10;;;;;;;24.36;39.33;102273.53;4850939;29;20430;-88
2022/06/17 10:48:43;;;;;;;4.50;1.85;;;;;;;24.34;39.58;102271.84;4864250;29;20068;-87
2022/06/17 10:51:09;;;;;;;2.38;1.83;;;;;;;24.34;39.51;102277.97;4849282;29;20030;-88
2022/06/17 10:53:43;;;;;;;2.00;1.65;;;;;;;24.36;39.00;102272.69;4848377;29;20134;-88
2022/06/17 10:56:17;;;;;;;4.60;1.67;;;;;;;24.35;39.55;102266.56;4847853;29;20037;-88
2022/06/17 10:58:56;;;;;;;3.10;2.00;;;;;;;24.34;39.58;102256.03;4848037;29;20029;-87
2022/06/17 11:01:21;;;;;;;3.72;1.80;;;;;;;24.33;39.27;102255.19;4864635;29;20029;-88
2022/06/17 11:03:48;;;;;;;2.60;1.73;;;;;;;24.33;39.16;102255.19;4834279;29;20166;-86
2022/06/17 11:06:23;;;;;;;4.22;1.80;;;;;;;24.35;39.53;102250.78;4833997;29;20033;-88
2022/06/17 11:08:52;;;;;;;2.55;1.95;;;;;;;24.34;39.19;102243.75;4850362;29;20587;-86
2022/06/17 11:14:29;;;;;;;3.60;1.90;;;;;;;24.34;39.19;102227.97;4869387;29;20064;-88
2022/06/17 11:16:54;;;;;;;3.80;1.83;;;;;;;24.34;39.07;102213.97;4849975;29;20071;-89
2022/06/17 11:19:24;;;;;;;2.70;1.77;;;;;;;24.35;39.61;102215.72;4847850;29;20079;-86
2022/06/17 11:21:54;;;;;;;3.25;1.73;;;;;;;24.35;39.50;102206.03;4847716;29;20025;-87
2022/06/17 11:24:36;;;;;;;3.20;1.90;;;;;;;24.37;39.19;102208.66;4847982;29;20556;-86
2022/06/17 11:27:33;;;;;;;2.33;1.65;;;;;;;24.37;39.55;102206.91;4848371;29;20029;-86
2022/06/17 11:30:17;;;;;;;3.30;1.98;;;;;;;24.38;39.12;102203.34;4852661;29;20045;-87
2022/06/17 11:32:45;;;;;;;3.25;1.83;;;;;;;24.39;39.25;102202.47;4847907;29;20130;-86
2022/06/17 11:35:33;;;;;;;2.22;1.88;;;;;;;24.40;39.02;102198.94;4848235;29;20393;-86
2022/06/17 11:38:01;;;;;;;2.47;1.80;;;;;;;24.41;39.18;102212.94;4847437;29;20029;-80
2022/06/17 11:40:32;;;;;;;3.20;1.90;;;;;;;24.42;39.36;102210.31;4828049;29;20061;-81
2022/06/17 11:42:59;;;;;;;3.15;1.80;;;;;;;24.42;39.37;102215.56;4843951;29;20374;-80
2022/06/17 11:45:28;;;;;;;2.50;1.60;;;;;;;24.43;39.02;102209.44;4843801;29;20026;-81
2022/06/17 11:47:59;;;;;;;2.58;1.70;;;;;;;24.43;39.07;102217.31;4845774;29;20113;-81
2022/06/17 11:50:40;;;;;;;2.08;1.70;;;;;;;24.44;39.28;102207.66;4843011;29;20031;-81
2022/06/17 11:53:12;;;;;;;3.40;1.70;;;;;;;24.45;39.41;102214.63;4844518;29;20030;-80
2022/06/17 11:55:46;;;;;;;2.50;1.58;;;;;;;24.46;39.07;102202.38;4843406;29;20452;-81